createdAt,value
2019-02-08T00:04:01.003Z,16.30
2019-02-08T00:08:05.422Z,20.87
2019-02-08T00:12:09.218Z,17.77
2019-02-08T00:16:13.225Z,23.43
2019-02-08T00:20:17.675Z,23.50
2019-02-08T00:24:21.470Z,18.23
2019-02-08T00:28:25.473Z,22.87
2019-02-08T00:32:29.601Z,15.57
2019-02-08T00:36:33.329Z,24.53
2019-02-08T00:40:36.605Z,24.53
2019-02-08T00:44:40.346Z,28.00
2019-02-08T00:48:44.088Z,13.50
2019-02-08T00:52:47.894Z,17.67
2019-02-08T00:56:51.188Z,19.80
2019-02-08T01:00:55.214Z,22.83
2019-02-08T01:04:58.798Z,26.80
2019-02-08T01:09:04.106Z,37.60
2019-02-08T01:13:08.060Z,25.47
2019-02-08T01:17:13.119Z,27.60
2019-02-08T01:21:16.838Z,43.67
2019-02-08T01:25:22.186Z,25.00
2019-02-08T01:29:25.986Z,27.20
2019-02-08T01:33:29.362Z,25.07
2019-02-08T01:37:33.090Z,33.27
2019-02-08T01:41:36.826Z,32.10
2019-02-08T01:45:40.618Z,18.33
2019-02-08T01:49:44.418Z,23.23
2019-02-08T01:53:48.899Z,28.77
2019-02-08T01:57:52.300Z,21.00
2019-02-08T02:01:56.023Z,22.57
2019-02-08T02:06:00.135Z,27.17
2019-02-08T02:10:05.222Z,21.83
2019-02-08T02:14:09.147Z,28.37
2019-02-08T02:18:14.658Z,20.60
2019-02-08T02:22:18.390Z,22.00
2019-02-08T02:26:22.190Z,20.73
2019-02-08T02:30:28.245Z,21.27
2019-02-08T02:34:31.522Z,17.67
2019-02-08T02:38:35.567Z,17.33
2019-02-08T02:42:39.686Z,19.77
2019-02-08T02:46:43.767Z,23.33
2019-02-08T02:50:47.495Z,18.00
2019-02-08T02:54:51.558Z,18.93
2019-02-08T02:58:55.287Z,15.83
2019-02-08T03:02:59.555Z,18.10
2019-02-08T03:07:02.860Z,20.33
2019-02-08T03:11:06.250Z,24.80
2019-02-08T03:15:10.091Z,20.47
2019-02-08T03:19:14.000Z,30.17
2019-02-08T03:23:17.882Z,18.83
2019-02-08T03:27:21.719Z,14.67
2019-02-08T03:31:25.480Z,17.00
2019-02-08T03:35:29.630Z,11.50
2019-02-08T03:39:32.943Z,17.20
2019-02-08T03:43:36.735Z,15.37
2019-02-08T03:47:40.466Z,20.80
2019-02-08T03:51:44.210Z,18.83
2019-02-08T03:55:48.097Z,22.30
2019-02-08T03:59:51.883Z,14.33
2019-02-08T04:04:00.129Z,22.60
2019-02-08T04:08:04.211Z,16.30
2019-02-08T04:12:08.014Z,15.93
2019-02-08T04:16:12.098Z,20.07
2019-02-08T04:20:17.390Z,16.37
2019-02-08T04:24:20.682Z,14.37
2019-02-08T04:28:24.601Z,22.87
2019-02-08T04:32:28.346Z,21.10
2019-02-08T04:36:32.070Z,20.90
2019-02-08T04:40:35.369Z,17.60
2019-02-08T04:44:38.679Z,12.90
2019-02-08T04:48:42.238Z,12.97
2019-02-08T04:52:45.550Z,12.83
2019-02-08T04:56:49.538Z,17.37
2019-02-08T05:00:53.542Z,16.73
2019-02-08T05:04:58.127Z,17.17
2019-02-08T05:09:02.210Z,12.70
2019-02-08T05:13:06.206Z,19.83
2019-02-08T05:17:09.836Z,18.57
2019-02-08T05:21:13.822Z,15.27
2019-02-08T05:25:17.290Z,26.03
2019-02-08T05:29:21.035Z,14.90
2019-02-08T05:33:24.758Z,15.93
2019-02-08T05:37:28.061Z,19.27
2019-02-08T05:41:31.791Z,25.53
2019-02-08T05:45:35.624Z,14.60
2019-02-08T05:49:39.422Z,18.63
2019-02-08T05:53:43.174Z,17.40
2019-02-08T05:57:46.974Z,15.30
2019-02-08T06:01:50.719Z,19.53
2019-02-08T06:05:54.628Z,18.67
2019-02-08T06:09:58.343Z,20.07
2019-02-08T06:14:01.648Z,15.93
2019-02-08T06:18:06.654Z,15.47
2019-02-08T06:22:10.065Z,22.73
2019-02-08T06:26:13.873Z,21.43
2019-02-08T06:30:19.629Z,20.83
2019-02-08T06:34:23.349Z,21.33
2019-02-08T06:38:27.230Z,20.17
2019-02-08T06:42:30.527Z,18.30
2019-02-08T06:46:34.259Z,20.83
2019-02-08T06:50:38.164Z,16.73
2019-02-08T06:54:41.934Z,25.77
2019-02-08T06:58:54.510Z,21.93
2019-02-08T07:03:16.398Z,22.90
2019-02-08T07:07:42.062Z,26.03
2019-02-08T07:12:07.724Z,19.17
2019-02-08T07:16:20.538Z,23.73
2019-02-08T07:20:42.218Z,17.57
2019-02-08T07:25:04.358Z,17.07
2019-02-08T07:29:26.390Z,21.57
2019-02-08T07:33:40.010Z,23.70
2019-02-08T07:37:56.146Z,20.73
2019-02-08T07:42:10.294Z,26.90
2019-02-08T07:46:32.446Z,31.07
2019-02-08T07:50:50.389Z,28.77
2019-02-08T07:55:12.946Z,33.13
2019-02-08T07:59:31.761Z,27.10
2019-02-08T08:04:01.003Z,20.63
2019-02-08T08:08:06.790Z,22.03
2019-02-08T08:12:17.563Z,21.70
2019-02-08T08:16:39.094Z,16.90
2019-02-08T08:20:50.618Z,24.40
2019-02-08T08:25:14.746Z,18.90
2019-02-08T08:29:33.394Z,18.77
2019-02-08T08:33:41.886Z,19.87
2019-02-08T08:38:33.632Z,18.60
2019-02-08T08:43:29.775Z,19.00
2019-02-08T08:48:21.694Z,21.77
2019-02-08T08:52:29.838Z,14.87
2019-02-08T08:56:38.974Z,19.20
2019-02-08T09:01:20.254Z,17.17
2019-02-08T09:05:54.977Z,27.07
2019-02-08T09:10:52.471Z,15.67
2019-02-08T09:15:18.262Z,13.73
2019-02-08T09:19:47.070Z,16.87
2019-02-08T09:23:56.986Z,18.00
2019-02-08T09:28:21.642Z,16.87
2019-02-08T09:32:44.434Z,14.47
2019-02-08T09:37:35.578Z,18.60
2019-02-08T09:41:50.902Z,14.57
2019-02-08T09:46:18.250Z,13.30
2019-02-08T09:50:50.018Z,13.53
2019-02-08T09:55:06.860Z,15.27
2019-02-08T09:59:41.741Z,13.50
2019-02-08T10:04:22.914Z,14.93
2019-02-08T10:08:40.888Z,13.10
2019-02-08T10:12:58.216Z,17.73
2019-02-08T10:17:19.634Z,14.60
2019-02-08T10:21:45.298Z,13.33
2019-02-08T10:26:21.574Z,16.80
2019-02-08T10:30:51.282Z,13.57
2019-02-08T10:35:12.846Z,11.47
2019-02-08T10:39:59.935Z,14.53
2019-02-08T10:44:26.210Z,14.63
2019-02-08T10:49:02.493Z,15.77
2019-02-08T10:53:26.586Z,12.00
2019-02-08T10:58:10.603Z,10.37
2019-02-08T11:02:56.850Z,13.00
2019-02-08T11:07:18.090Z,10.90
2019-02-08T11:11:59.266Z,9.23
2019-02-08T11:16:51.373Z,11.47
2019-02-08T11:20:54.781Z,9.23
2019-02-08T11:24:59.150Z,10.30
2019-02-08T11:29:02.866Z,8.87
2019-02-08T11:33:07.155Z,12.17
2019-02-08T11:37:11.036Z,10.83
2019-02-08T11:41:14.710Z,9.20
2019-02-08T11:45:19.126Z,11.37
2019-02-08T11:49:22.739Z,5.47
2019-02-08T11:53:26.782Z,8.70
2019-02-08T11:57:30.102Z,8.17
2019-02-08T12:01:37.946Z,7.80
2019-02-08T12:05:41.246Z,6.73
2019-02-08T12:09:45.041Z,7.70
2019-02-08T12:13:48.864Z,6.93
2019-02-08T12:17:52.198Z,8.03
2019-02-08T12:21:56.142Z,6.70
2019-02-08T12:26:00.014Z,8.47
2019-02-08T12:30:04.790Z,6.17
2019-02-08T12:34:08.551Z,7.47
2019-02-08T12:38:11.874Z,6.77
2019-02-08T12:42:15.146Z,7.23
2019-02-08T12:46:18.494Z,7.50
2019-02-08T12:50:22.286Z,7.73
2019-02-08T12:54:25.671Z,9.73
2019-02-08T12:58:29.386Z,7.13
2019-02-08T13:02:33.152Z,8.07
2019-02-08T13:06:36.506Z,6.60
2019-02-08T13:10:39.894Z,9.13
2019-02-08T13:14:43.246Z,9.37
2019-02-08T13:18:46.554Z,5.80
2019-02-08T13:22:50.006Z,6.10
2019-02-08T13:26:53.837Z,5.37
2019-02-08T13:30:57.190Z,6.33
2019-02-08T13:35:00.871Z,5.60
2019-02-08T13:39:07.704Z,7.50
2019-02-08T13:43:11.538Z,5.10
2019-02-08T13:47:15.326Z,6.53
2019-02-08T13:51:19.182Z,5.27
2019-02-08T13:55:23.034Z,5.30
2019-02-08T13:59:26.626Z,4.37
2019-02-08T14:03:30.347Z,4.53
2019-02-08T14:07:34.427Z,4.63
2019-02-08T14:11:38.286Z,4.33
2019-02-08T14:15:42.030Z,5.03
2019-02-08T14:19:45.386Z,3.90
2019-02-08T14:23:49.472Z,5.10
2019-02-08T14:27:53.347Z,3.93
2019-02-08T14:31:57.443Z,3.43
2019-02-08T14:36:00.986Z,7.13
2019-02-08T14:40:07.062Z,4.77
2019-02-08T14:44:10.427Z,5.67
2019-02-08T14:48:14.231Z,4.47
2019-02-08T14:52:18.025Z,5.60
2019-02-08T14:56:21.847Z,6.83
2019-02-08T15:00:25.194Z,3.30
2019-02-08T15:04:29.403Z,6.57
2019-02-08T15:08:33.126Z,7.00
2019-02-08T15:12:37.046Z,4.70
2019-02-08T15:16:40.341Z,7.87
2019-02-08T15:20:44.370Z,6.77
2019-02-08T15:24:48.211Z,8.97
2019-02-08T15:28:51.554Z,6.33
2019-02-08T15:32:54.906Z,3.57
2019-02-08T15:36:58.770Z,7.90
2019-02-08T15:41:02.192Z,5.33
2019-02-08T15:45:09.311Z,8.07
2019-02-08T15:49:13.094Z,4.93
2019-02-08T15:53:17.146Z,7.30
2019-02-08T15:57:20.503Z,6.60
2019-02-08T16:01:23.809Z,6.57
2019-02-08T16:05:29.782Z,5.33
2019-02-08T16:09:33.351Z,10.63
2019-02-08T16:13:36.694Z,4.77
2019-02-08T16:17:40.521Z,7.20
2019-02-08T16:21:43.806Z,7.23
2019-02-08T16:25:47.274Z,5.03
2019-02-08T16:29:51.269Z,2.97
2019-02-08T16:33:55.003Z,4.27
2019-02-08T16:38:00.111Z,5.40
2019-02-08T16:42:04.939Z,7.83
2019-02-08T16:46:08.294Z,6.80
2019-02-08T16:50:13.322Z,3.60
2019-02-08T16:54:17.102Z,6.70
2019-02-08T16:58:20.674Z,7.17
2019-02-08T17:02:23.970Z,3.30
2019-02-08T17:06:27.306Z,5.63
2019-02-08T17:10:30.662Z,8.40
2019-02-08T17:14:34.410Z,5.95
2019-02-08T17:18:39.056Z,4.90
2019-02-08T17:22:42.978Z,5.80
2019-02-08T17:26:46.277Z,15.17
2019-02-08T17:30:50.026Z,7.53
2019-02-08T17:34:53.747Z,7.57
2019-02-08T17:38:58.018Z,7.87
2019-02-08T17:43:01.407Z,8.63
2019-02-08T17:47:05.238Z,5.17
2019-02-08T17:51:08.587Z,6.97
2019-02-08T17:55:13.006Z,4.27
2019-02-08T17:59:16.732Z,6.10
2019-02-08T18:03:20.843Z,8.87
2019-02-08T18:07:24.671Z,4.23
2019-02-08T18:11:28.239Z,3.50
2019-02-08T18:15:32.138Z,2.57
2019-02-08T18:19:36.901Z,3.03
2019-02-08T18:23:40.574Z,3.10
2019-02-08T18:27:44.398Z,3.00
2019-02-08T18:31:47.945Z,3.67
2019-02-08T18:35:51.722Z,6.00
2019-02-08T18:39:55.050Z,7.33
2019-02-08T18:44:00.036Z,4.57
2019-02-08T18:48:03.746Z,4.33
2019-02-08T18:52:07.754Z,3.67
2019-02-08T18:56:11.518Z,4.30
2019-02-08T19:00:16.511Z,2.67
2019-02-08T19:04:19.835Z,4.50
2019-02-08T19:08:23.746Z,5.27
2019-02-08T19:12:27.918Z,5.00
2019-02-08T19:16:31.840Z,4.23
2019-02-08T19:20:35.570Z,10.87
2019-02-08T19:24:38.878Z,6.43
2019-02-08T19:28:42.607Z,8.67
2019-02-08T19:32:46.490Z,4.13
2019-02-08T19:36:49.766Z,4.73
2019-02-08T19:40:53.471Z,3.60
2019-02-08T19:44:56.774Z,3.60
2019-02-08T19:49:00.448Z,4.67
2019-02-08T19:53:04.966Z,2.60
2019-02-08T19:57:08.478Z,4.80
2019-02-08T20:01:11.751Z,7.90
2019-02-08T20:05:16.466Z,10.17
2019-02-08T20:09:19.819Z,4.73
2019-02-08T20:13:23.202Z,12.10
2019-02-08T20:17:26.490Z,5.10
2019-02-08T20:21:29.875Z,4.80
2019-02-08T20:25:33.966Z,5.33
2019-02-08T20:29:37.966Z,5.93
2019-02-08T20:33:42.134Z,7.30
2019-02-08T20:37:45.510Z,5.03
2019-02-08T20:41:49.345Z,19.00
2019-02-08T20:45:52.650Z,5.20
2019-02-08T20:49:56.433Z,5.43
2019-02-08T20:54:00.258Z,5.20
2019-02-08T20:58:05.982Z,9.10
2019-02-08T21:02:09.896Z,5.30
2019-02-08T21:06:13.955Z,8.07
2019-02-08T21:10:17.432Z,4.70
2019-02-08T21:14:20.706Z,3.90
2019-02-08T21:18:24.014Z,4.70
2019-02-08T21:22:27.358Z,5.67
2019-02-08T21:26:31.087Z,8.00
2019-02-08T21:30:34.362Z,8.17
2019-02-08T21:34:38.119Z,8.33
2019-02-08T21:38:41.912Z,4.53
2019-02-08T21:42:46.142Z,10.83
2019-02-08T21:46:49.421Z,7.07
2019-02-08T21:50:53.390Z,6.40
2019-02-08T21:54:57.102Z,6.37
2019-02-08T21:59:06.005Z,6.83
2019-02-08T22:03:07.286Z,4.23
2019-02-08T22:07:11.075Z,5.60
2019-02-08T22:11:14.586Z,6.07
2019-02-08T22:15:22.202Z,6.97
2019-02-08T22:19:25.933Z,6.43
2019-02-08T22:23:30.298Z,4.77
2019-02-08T22:27:33.943Z,6.03
2019-02-08T22:31:37.478Z,7.53
2019-02-08T22:35:41.351Z,3.83
2019-02-08T22:39:44.726Z,5.13
2019-02-08T22:43:48.386Z,4.50
2019-02-08T22:47:52.606Z,4.60
2019-02-08T22:51:56.322Z,4.30
2019-02-08T22:56:00.534Z,5.90
2019-02-08T23:00:14.430Z,3.97
2019-02-08T23:04:18.178Z,5.13
2019-02-08T23:08:22.447Z,5.40
2019-02-08T23:12:25.836Z,4.50
2019-02-08T23:16:29.102Z,4.77
2019-02-08T23:20:32.850Z,6.07
2019-02-08T23:24:36.562Z,5.27
2019-02-08T23:28:40.386Z,6.90
2019-02-08T23:32:44.181Z,3.60
2019-02-08T23:36:47.958Z,4.23
2019-02-08T23:40:51.539Z,6.53
2019-02-08T23:44:55.365Z,5.30
2019-02-08T23:48:59.073Z,5.00
2019-02-08T23:53:03.106Z,3.40
2019-02-08T23:57:06.822Z,3.87
